Current | Forecast
Updated: 8:30 AM CEST on April 27, 2018
Observed at Santander Airport, Spain
Temperature 13°C
Humidity 82%
Dew Point 10°C
Wind SW at 11 km/h
Pressure 1014 hPa (Steady)
Conditions Clear
Visibility -
UV N/A
Clouds
Yesterday's Maximum 16°C
Yesterday's Minimum 12°C approx.
Yesterday's Heating Degree Days 8 approx.
Sunrise7:13 AM CEST
Sunset9:11 PM CEST
Moon Rise6:29 PM CEST
Moon Set6:16 AM CEST
Moon PhaseMoon Phase
Waxing Gibbous
Raw METARMETAR LEXJ 270630Z 22006KT 180V250 CAVOK 13/10 Q1014


Monday
. High: 69° F.
Tuesday
. High: 73° F.
Wednesday
. High: 59° F.
Thursday
. High: 62° F.
Friday
. High: 71° F.
Saturday
. High: 69° F.
Sunday
. High: 66° F.
Monday
. High: 73° F.

Click here for Marine Information
Scientific forecaster discussion (NWS)

Units: English | Metric

Find the Weather for any City, State or Zipcode, or Country:

U.S. State List | Severe Weather | Tropical Storms | Ski Conditions
United States | Canada | Central America | South America | Asia | Europe | Australia | Africa | Islands

Weather Underground

© Copyright 2018
The Weather Company, LLC